sensor_id;sensor_type;location;lat;lon;timestamp;pressure;altitude;pressure_sealevel;temperature;humidity
71907;BME280;59781;52.090;5.030;2022-11-18T04:49:28;99679.88;;;8.08;100.00
71907;BME280;59781;52.090;5.030;2022-11-18T04:55:54;99694.28;;;8.07;100.00
71907;BME280;59781;52.090;5.030;2022-11-18T05:01:55;99691.63;;;8.07;100.00
71907;BME280;59781;52.090;5.030;2022-11-18T05:05:02;99692.22;;;7.80;100.00
71907;BME280;59781;52.090;5.030;2022-11-18T05:13:17;99692.72;;;7.75;100.00
71907;BME280;59781;52.090;5.030;2022-11-18T05:23:46;99714.41;;;7.88;100.00
71907;BME280;59781;52.090;5.030;2022-11-18T05:26:12;99716.38;;;8.09;100.00
71907;BME280;59781;52.090;5.030;2022-11-18T05:28:38;99719.72;;;8.11;100.00
71907;BME280;59781;52.090;5.030;2022-11-18T05:31:15;99719.09;;;7.86;100.00
71907;BME280;59781;52.090;5.030;2022-11-18T05:33:43;99717.16;;;8.18;100.00
71907;BME280;59781;52.090;5.030;2022-11-18T05:36:12;99735.41;;;7.99;100.00
71907;BME280;59781;52.090;5.030;2022-11-18T05:38:40;99728.47;;;8.05;100.00
71907;BME280;59781;52.090;5.030;2022-11-18T05:41:08;99728.63;;;8.26;100.00
71907;BME280;59781;52.090;5.030;2022-11-18T05:43:36;99730.94;;;8.29;100.00
71907;BME280;59781;52.090;5.030;2022-11-18T05:46:03;99731.56;;;8.31;100.00
71907;BME280;59781;52.090;5.030;2022-11-18T05:48:28;99733.75;;;8.36;100.00
71907;BME280;59781;52.090;5.030;2022-11-18T05:50:54;99747.94;;;8.22;100.00
71907;BME280;59781;52.090;5.030;2022-11-18T05:53:39;99739.44;;;8.33;100.00
71907;BME280;59781;52.090;5.030;2022-11-18T05:56:29;99753.88;;;8.32;100.00
71907;BME280;59781;52.090;5.030;2022-11-18T06:03:15;99757.47;;;8.24;100.00
71907;BME280;59781;52.090;5.030;2022-11-18T06:05:46;99763.09;;;8.38;100.00
71907;BME280;59781;52.090;5.030;2022-11-18T06:08:15;99763.53;;;8.41;100.00
71907;BME280;59781;52.090;5.030;2022-11-18T06:10:46;99771.63;;;8.56;100.00
71907;BME280;59781;52.090;5.030;2022-11-18T06:13:35;99766.94;;;8.35;100.00
71907;BME280;59781;52.090;5.030;2022-11-18T06:18:02;99770.03;;;8.47;100.00
71907;BME280;59781;52.090;5.030;2022-11-18T06:20:59;99772.41;;;8.42;100.00
71907;BME280;59781;52.090;5.030;2022-11-18T06:24:18;99777.63;;;8.58;100.00
71907;BME280;59781;52.090;5.030;2022-11-18T06:26:45;99781.31;;;8.19;100.00
71907;BME280;59781;52.090;5.030;2022-11-18T06:29:32;99787.53;;;8.20;100.00
71907;BME280;59781;52.090;5.030;2022-11-18T06:31:57;99791.06;;;7.74;100.00
71907;BME280;59781;52.090;5.030;2022-11-18T06:38:17;99794.88;;;8.03;100.00
71907;BME280;59781;52.090;5.030;2022-11-18T06:40:43;99802.19;;;8.09;100.00
71907;BME280;59781;52.090;5.030;2022-11-18T06:43:10;99813.63;;;8.03;100.00
71907;BME280;59781;52.090;5.030;2022-11-18T06:45:59;99814.91;;;8.30;100.00
71907;BME280;59781;52.090;5.030;2022-11-18T06:48:45;99823.00;;;7.84;100.00
71907;BME280;59781;52.090;5.030;2022-11-18T07:12:55;99853.94;;;8.18;100.00
71907;BME280;59781;52.090;5.030;2022-11-18T07:23:15;99878.94;;;8.10;100.00
71907;BME280;59781;52.090;5.030;2022-11-18T07:25:41;99880.44;;;8.13;100.00
71907;BME280;59781;52.090;5.030;2022-11-18T07:28:07;99887.59;;;7.97;100.00
71907;BME280;59781;52.090;5.030;2022-11-18T07:30:32;99887.59;;;8.20;100.00
71907;BME280;59781;52.090;5.030;2022-11-18T07:34:11;99895.28;;;8.00;100.00
71907;BME280;59781;52.090;5.030;2022-11-18T07:37:33;99892.91;;;8.28;100.00
71907;BME280;59781;52.090;5.030;2022-11-18T07:44:36;99901.28;;;8.25;100.00
71907;BME280;59781;52.090;5.030;2022-11-18T07:47:02;99905.81;;;8.02;100.00
71907;BME280;59781;52.090;5.030;2022-11-18T07:49:50;99906.00;;;8.23;100.00
71907;BME280;59781;52.090;5.030;2022-11-18T07:52:15;99900.56;;;8.40;100.00
71907;BME280;59781;52.090;5.030;2022-11-18T07:55:09;99907.94;;;8.38;100.00
71907;BME280;59781;52.090;5.030;2022-11-18T08:01:11;99923.44;;;8.50;99.40
71907;BME280;59781;52.090;5.030;2022-11-18T08:03:39;99925.06;;;8.37;100.00
71907;BME280;59781;52.090;5.030;2022-11-18T08:06:08;99925.91;;;8.29;100.00
71907;BME280;59781;52.090;5.030;2022-11-18T08:08:55;99932.38;;;8.43;100.00
71907;BME280;59781;52.090;5.030;2022-11-18T08:11:21;99935.56;;;8.46;100.00
71907;BME280;59781;52.090;5.030;2022-11-18T08:13:46;99943.47;;;8.40;100.00
71907;BME280;59781;52.090;5.030;2022-11-18T08:16:42;99940.38;;;8.88;99.23
71907;BME280;59781;52.090;5.030;2022-11-18T08:19:24;99947.94;;;8.70;98.99
71907;BME280;59781;52.090;5.030;2022-11-18T08:23:14;99961.09;;;8.80;99.96
71907;BME280;59781;52.090;5.030;2022-11-18T08:25:42;99958.03;;;8.83;98.92
71907;BME280;59781;52.090;5.030;2022-11-18T08:28:58;99956.03;;;8.85;97.98
71907;BME280;59781;52.090;5.030;2022-11-18T08:32:52;99957.63;;;9.09;96.91
71907;BME280;59781;52.090;5.030;2022-11-18T08:36:38;99969.03;;;9.11;97.37
71907;BME280;59781;52.090;5.030;2022-11-18T08:39:07;99970.63;;;9.79;93.75
71907;BME280;59781;52.090;5.030;2022-11-18T08:41:59;99977.84;;;9.93;90.64
71907;BME280;59781;52.090;5.030;2022-11-18T08:44:50;99975.06;;;9.42;94.01
71907;BME280;59781;52.090;5.030;2022-11-18T08:47:16;99982.59;;;8.95;96.32
71907;BME280;59781;52.090;5.030;2022-11-18T08:49:41;99964.06;;;9.67;94.18
71907;BME280;59781;52.090;5.030;2022-11-18T08:52:08;99977.97;;;9.26;95.83
71907;BME280;59781;52.090;5.030;2022-11-18T08:54:37;99970.97;;;9.02;95.67
71907;BME280;59781;52.090;5.030;2022-11-18T08:57:12;99971.34;;;9.73;93.15
71907;BME280;59781;52.090;5.030;2022-11-18T09:03:48;99986.38;;;9.97;89.58
71907;BME280;59781;52.090;5.030;2022-11-18T09:06:17;99983.97;;;9.72;90.69
71907;BME280;59781;52.090;5.030;2022-11-18T09:09:19;99987.16;;;10.27;89.74
71907;BME280;59781;52.090;5.030;2022-11-18T09:16:33;99994.28;;;10.34;89.20
71907;BME280;59781;52.090;5.030;2022-11-18T09:20:12;100007.69;;;9.39;93.97
71907;BME280;59781;52.090;5.030;2022-11-18T09:32:07;100026.00;;;9.73;95.41
71907;BME280;59781;52.090;5.030;2022-11-18T09:39:56;100033.03;;;9.89;94.30
71907;BME280;59781;52.090;5.030;2022-11-18T09:45:52;100033.50;;;9.78;93.53
71907;BME280;59781;52.090;5.030;2022-11-18T09:49:02;100043.13;;;9.58;94.87
71907;BME280;59781;52.090;5.030;2022-11-18T09:56:18;100051.75;;;9.83;94.79
71907;BME280;59781;52.090;5.030;2022-11-18T09:59:57;100061.59;;;9.75;94.52
71907;BME280;59781;52.090;5.030;2022-11-18T10:02:41;100066.97;;;9.90;92.29
71907;BME280;59781;52.090;5.030;2022-11-18T10:05:25;100065.41;;;9.96;94.45
71907;BME280;59781;52.090;5.030;2022-11-18T10:11:01;100062.69;;;10.11;93.33
71907;BME280;59781;52.090;5.030;2022-11-18T10:26:40;100076.50;;;10.22;91.89
71907;BME280;59781;52.090;5.030;2022-11-18T10:39:52;100090.66;;;10.24;92.37
71907;BME280;59781;52.090;5.030;2022-11-18T10:43:13;100099.91;;;10.07;95.60
71907;BME280;59781;52.090;5.030;2022-11-18T10:46:38;100102.97;;;10.04;94.23
71907;BME280;59781;52.090;5.030;2022-11-18T10:49:23;100102.50;;;9.86;94.83
71907;BME280;59781;52.090;5.030;2022-11-18T10:54:38;100108.16;;;10.35;93.15
71907;BME280;59781;52.090;5.030;2022-11-18T10:57:51;100112.41;;;10.15;94.61
71907;BME280;59781;52.090;5.030;2022-11-18T11:13:03;100117.50;;;9.65;99.41
71907;BME280;59781;52.090;5.030;2022-11-18T11:16:35;100122.88;;;9.65;100.00
71907;BME280;59781;52.090;5.030;2022-11-18T11:23:58;100123.72;;;10.10;98.11
71907;BME280;59781;52.090;5.030;2022-11-18T11:26:53;100126.16;;;10.05;98.54
71907;BME280;59781;52.090;5.030;2022-11-18T11:30:25;100128.09;;;10.11;97.93
71907;BME280;59781;52.090;5.030;2022-11-18T11:35:45;100125.97;;;10.06;99.92
71907;BME280;59781;52.090;5.030;2022-11-18T11:50:32;100135.97;;;10.57;99.77
71907;BME280;59781;52.090;5.030;2022-11-18T11:53:38;100132.19;;;10.07;100.00
71907;BME280;59781;52.090;5.030;2022-11-18T11:56:21;100141.94;;;10.38;100.00
71907;BME280;59781;52.090;5.030;2022-11-18T12:05:39;100130.06;;;10.47;98.40
71907;BME280;59781;52.090;5.030;2022-11-18T12:08:23;100123.16;;;10.59;96.66
71907;BME280;59781;52.090;5.030;2022-11-18T12:11:02;100132.19;;;10.37;98.26
71907;BME280;59781;52.090;5.030;2022-11-18T12:16:51;100140.53;;;10.56;95.46
71907;BME280;59781;52.090;5.030;2022-11-18T12:38:27;100161.81;;;10.37;94.75
71907;BME280;59781;52.090;5.030;2022-11-18T12:48:02;100167.31;;;10.79;94.13
71907;BME280;59781;52.090;5.030;2022-11-18T12:50:51;100167.06;;;10.59;94.93
71907;BME280;59781;52.090;5.030;2022-11-18T12:54:47;100173.03;;;10.40;95.51
71907;BME280;59781;52.090;5.030;2022-11-18T12:57:36;100175.25;;;10.22;96.18
71907;BME280;59781;52.090;5.030;2022-11-18T13:01:28;100182.13;;;10.54;95.28
71907;BME280;59781;52.090;5.030;2022-11-18T13:06:06;100181.28;;;10.53;94.34
71907;BME280;59781;52.090;5.030;2022-11-18T13:10:21;100184.75;;;10.32;95.50
71907;BME280;59781;52.090;5.030;2022-11-18T13:14:34;100192.31;;;10.58;94.58
71907;BME280;59781;52.090;5.030;2022-11-18T13:18:12;100194.63;;;10.76;95.53
71907;BME280;59781;52.090;5.030;2022-11-18T13:20:53;100193.44;;;10.64;95.15
71907;BME280;59781;52.090;5.030;2022-11-18T13:23:45;100183.56;;;10.71;94.06
71907;BME280;59781;52.090;5.030;2022-11-18T13:26:25;100189.41;;;10.89;92.21
71907;BME280;59781;52.090;5.030;2022-11-18T13:29:02;100196.94;;;10.79;94.28
71907;BME280;59781;52.090;5.030;2022-11-18T13:38:00;100193.66;;;10.62;93.66
71907;BME280;59781;52.090;5.030;2022-11-18T13:40:48;100200.56;;;10.86;93.89
71907;BME280;59781;52.090;5.030;2022-11-18T13:44:38;100200.31;;;10.67;93.65
71907;BME280;59781;52.090;5.030;2022-11-18T13:50:27;100201.34;;;10.66;93.96
71907;BME280;59781;52.090;5.030;2022-11-18T13:53:50;100210.09;;;10.53;94.63
71907;BME280;59781;52.090;5.030;2022-11-18T13:57:02;100209.13;;;10.31;95.74
71907;BME280;59781;52.090;5.030;2022-11-18T14:01:05;100207.84;;;10.56;93.81
71907;BME280;59781;52.090;5.030;2022-11-18T14:11:55;100224.81;;;10.27;96.86
71907;BME280;59781;52.090;5.030;2022-11-18T14:18:34;100226.66;;;10.42;97.74
71907;BME280;59781;52.090;5.030;2022-11-18T14:24:03;100231.25;;;10.03;100.00
71907;BME280;59781;52.090;5.030;2022-11-18T14:26:39;100236.84;;;10.17;98.84
71907;BME280;59781;52.090;5.030;2022-11-18T14:29:48;100240.00;;;10.20;100.00
71907;BME280;59781;52.090;5.030;2022-11-18T14:36:49;100242.00;;;10.26;100.00
71907;BME280;59781;52.090;5.030;2022-11-18T14:39:58;100246.53;;;10.26;100.00
71907;BME280;59781;52.090;5.030;2022-11-18T14:43:09;100244.50;;;10.57;96.87
71907;BME280;59781;52.090;5.030;2022-11-18T14:50:17;100254.81;;;10.24;98.49
71907;BME280;59781;52.090;5.030;2022-11-18T14:53:40;100247.03;;;10.74;96.20
71907;BME280;59781;52.090;5.030;2022-11-18T14:56:50;100258.91;;;10.94;94.32
71907;BME280;59781;52.090;5.030;2022-11-18T15:00:29;100267.16;;;10.78;95.44
71907;BME280;59781;52.090;5.030;2022-11-18T15:04:31;100274.78;;;10.59;96.79
71907;BME280;59781;52.090;5.030;2022-11-18T15:08:17;100280.03;;;10.23;100.00
71907;BME280;59781;52.090;5.030;2022-11-18T15:11:10;100274.22;;;10.34;99.48
71907;BME280;59781;52.090;5.030;2022-11-18T15:14:37;100285.19;;;10.77;99.04
71907;BME280;59781;52.090;5.030;2022-11-18T15:18:16;100279.78;;;10.48;98.80
71907;BME280;59781;52.090;5.030;2022-11-18T15:21:27;100288.28;;;9.99;100.00
71907;BME280;59781;52.090;5.030;2022-11-18T15:24:27;100292.69;;;10.38;100.00
71907;BME280;59781;52.090;5.030;2022-11-18T15:28:26;100298.41;;;9.97;100.00
71907;BME280;59781;52.090;5.030;2022-11-18T15:32:13;100302.56;;;9.99;100.00
71907;BME280;59781;52.090;5.030;2022-11-18T15:35:18;100293.53;;;10.15;100.00
71907;BME280;59781;52.090;5.030;2022-11-18T15:37:44;100307.69;;;9.63;100.00
71907;BME280;59781;52.090;5.030;2022-11-18T15:40:10;100310.31;;;9.48;100.00
71907;BME280;59781;52.090;5.030;2022-11-18T15:42:36;100310.28;;;9.26;100.00
71907;BME280;59781;52.090;5.030;2022-11-18T15:45:03;100313.72;;;9.73;100.00
71907;BME280;59781;52.090;5.030;2022-11-18T15:47:31;100304.53;;;9.60;100.00
71907;BME280;59781;52.090;5.030;2022-11-18T15:49:58;100316.69;;;9.25;100.00
71907;BME280;59781;52.090;5.030;2022-11-18T15:52:49;100322.13;;;9.39;100.00
71907;BME280;59781;52.090;5.030;2022-11-18T15:55:16;100318.28;;;9.65;100.00
71907;BME280;59781;52.090;5.030;2022-11-18T15:57:49;100322.72;;;10.03;100.00
71907;BME280;59781;52.090;5.030;2022-11-18T16:00:42;100335.97;;;9.59;100.00
71907;BME280;59781;52.090;5.030;2022-11-18T16:03:38;100326.47;;;9.71;100.00
71907;BME280;59781;52.090;5.030;2022-11-18T16:07:58;100338.06;;;9.72;100.00
71907;BME280;59781;52.090;5.030;2022-11-18T16:11:19;100333.22;;;9.90;100.00
71907;BME280;59781;52.090;5.030;2022-11-18T16:14:52;100334.88;;;9.45;100.00
71907;BME280;59781;52.090;5.030;2022-11-18T16:23:09;100330.44;;;9.84;100.00
71907;BME280;59781;52.090;5.030;2022-11-18T16:25:56;100330.78;;;9.58;100.00
71907;BME280;59781;52.090;5.030;2022-11-18T16:29:02;100330.91;;;9.87;100.00
71907;BME280;59781;52.090;5.030;2022-11-18T16:31:54;100339.41;;;9.99;100.00
71907;BME280;59781;52.090;5.030;2022-11-18T16:36:07;100345.25;;;9.48;100.00
71907;BME280;59781;52.090;5.030;2022-11-18T16:40:24;100347.94;;;9.48;100.00
71907;BME280;59781;52.090;5.030;2022-11-18T16:44:37;100352.28;;;9.81;100.00
71907;BME280;59781;52.090;5.030;2022-11-18T16:49:00;100352.19;;;9.97;100.00
71907;BME280;59781;52.090;5.030;2022-11-18T16:56:49;100370.31;;;9.72;100.00
71907;BME280;59781;52.090;5.030;2022-11-18T17:00:01;100369.09;;;9.52;100.00
71907;BME280;59781;52.090;5.030;2022-11-18T17:03:15;100370.91;;;9.59;100.00
71907;BME280;59781;52.090;5.030;2022-11-18T17:05:41;100365.81;;;10.18;100.00
71907;BME280;59781;52.090;5.030;2022-11-18T17:08:07;100369.31;;;10.27;100.00
71907;BME280;59781;52.090;5.030;2022-11-18T17:10:57;100378.38;;;10.03;100.00
71907;BME280;59781;52.090;5.030;2022-11-18T17:14:00;100382.59;;;9.74;100.00
71907;BME280;59781;52.090;5.030;2022-11-18T17:18:07;100393.22;;;10.22;100.00
71907;BME280;59781;52.090;5.030;2022-11-18T17:20:40;100388.63;;;9.76;100.00
71907;BME280;59781;52.090;5.030;2022-11-18T17:27:00;100405.59;;;9.77;100.00
71907;BME280;59781;52.090;5.030;2022-11-18T17:42:02;100414.94;;;9.58;100.00
71907;BME280;59781;52.090;5.030;2022-11-18T17:45:03;100405.44;;;10.01;100.00
71907;BME280;59781;52.090;5.030;2022-11-18T17:56:17;100420.50;;;9.57;100.00
71907;BME280;59781;52.090;5.030;2022-11-18T18:03:10;100432.69;;;9.28;100.00
71907;BME280;59781;52.090;5.030;2022-11-18T18:06:50;100433.34;;;9.77;100.00
71907;BME280;59781;52.090;5.030;2022-11-18T18:09:18;100439.19;;;9.81;100.00
71907;BME280;59781;52.090;5.030;2022-11-18T18:11:44;100440.41;;;9.31;100.00
71907;BME280;59781;52.090;5.030;2022-11-18T18:14:10;100443.84;;;9.56;100.00
71907;BME280;59781;52.090;5.030;2022-11-18T18:16:44;100447.69;;;9.93;100.00
71907;BME280;59781;52.090;5.030;2022-11-18T18:19:20;100446.47;;;10.03;100.00
71907;BME280;59781;52.090;5.030;2022-11-18T18:26:09;100452.81;;;9.32;100.00
71907;BME280;59781;52.090;5.030;2022-11-18T18:36:12;100455.28;;;9.58;100.00
71907;BME280;59781;52.090;5.030;2022-11-18T18:39:57;100456.53;;;9.23;100.00
71907;BME280;59781;52.090;5.030;2022-11-18T18:44:22;100461.03;;;9.39;100.00
71907;BME280;59781;52.090;5.030;2022-11-18T18:57:28;100486.09;;;9.31;100.00
71907;BME280;59781;52.090;5.030;2022-11-18T19:01:37;100480.78;;;9.62;100.00
71907;BME280;59781;52.090;5.030;2022-11-18T19:05:24;100485.56;;;9.83;100.00
71907;BME280;59781;52.090;5.030;2022-11-18T19:08:03;100476.13;;;9.48;100.00
71907;BME280;59781;52.090;5.030;2022-11-18T19:14:42;100493.38;;;9.70;100.00
71907;BME280;59781;52.090;5.030;2022-11-18T19:17:07;100501.00;;;9.89;100.00
71907;BME280;59781;52.090;5.030;2022-11-18T19:20:06;100490.53;;;9.63;100.00
71907;BME280;59781;52.090;5.030;2022-11-18T19:23:53;100496.25;;;9.60;100.00
71907;BME280;59781;52.090;5.030;2022-11-18T19:32:29;100500.19;;;9.89;100.00
71907;BME280;59781;52.090;5.030;2022-11-18T19:36:44;100518.31;;;9.39;100.00
71907;BME280;59781;52.090;5.030;2022-11-18T19:41:17;100510.78;;;9.35;100.00
71907;BME280;59781;52.090;5.030;2022-11-18T19:45:53;100516.94;;;9.60;100.00
71907;BME280;59781;52.090;5.030;2022-11-18T19:49:49;100521.91;;;9.79;100.00
71907;BME280;59781;52.090;5.030;2022-11-18T19:58:20;100525.59;;;9.86;100.00
71907;BME280;59781;52.090;5.030;2022-11-18T20:01:21;100535.50;;;9.86;100.00
71907;BME280;59781;52.090;5.030;2022-11-18T20:05:13;100539.97;;;9.54;100.00
71907;BME280;59781;52.090;5.030;2022-11-18T20:08:24;100542.13;;;9.59;100.00
71907;BME280;59781;52.090;5.030;2022-11-18T20:12:43;100542.88;;;9.28;100.00
71907;BME280;59781;52.090;5.030;2022-11-18T20:15:49;100552.44;;;9.31;100.00
71907;BME280;59781;52.090;5.030;2022-11-18T20:18:14;100547.41;;;9.19;100.00
71907;BME280;59781;52.090;5.030;2022-11-18T20:20:48;100553.63;;;9.04;100.00
71907;BME280;59781;52.090;5.030;2022-11-18T20:23:14;100555.47;;;9.19;100.00
71907;BME280;59781;52.090;5.030;2022-11-18T20:26:13;100557.31;;;9.03;100.00
71907;BME280;59781;52.090;5.030;2022-11-18T20:30:53;100563.22;;;9.06;100.00
71907;BME280;59781;52.090;5.030;2022-11-18T20:34:05;100564.16;;;8.65;100.00
71907;BME280;59781;52.090;5.030;2022-11-18T20:37:45;100572.72;;;8.60;100.00
71907;BME280;59781;52.090;5.030;2022-11-18T20:41:10;100583.84;;;8.31;100.00
71907;BME280;59781;52.090;5.030;2022-11-18T20:45:10;100588.59;;;8.03;100.00
71907;BME280;59781;52.090;5.030;2022-11-18T20:49:17;100599.69;;;7.74;100.00
71907;BME280;59781;52.090;5.030;2022-11-18T20:52:17;100599.28;;;7.95;100.00
71907;BME280;59781;52.090;5.030;2022-11-18T20:55:03;100603.53;;;8.05;100.00
71907;BME280;59781;52.090;5.030;2022-11-18T21:03:37;100616.19;;;7.61;100.00
71907;BME280;59781;52.090;5.030;2022-11-18T21:12:14;100618.16;;;7.33;100.00
71907;BME280;59781;52.090;5.030;2022-11-18T21:16:32;100626.00;;;6.91;100.00
71907;BME280;59781;52.090;5.030;2022-11-18T21:21:07;100632.50;;;7.06;100.00
71907;BME280;59781;52.090;5.030;2022-11-18T21:24:53;100640.16;;;6.83;100.00
71907;BME280;59781;52.090;5.030;2022-11-18T21:29:06;100639.41;;;6.91;100.00
71907;BME280;59781;52.090;5.030;2022-11-18T21:33:07;100644.19;;;7.05;100.00
71907;BME280;59781;52.090;5.030;2022-11-18T21:36:05;100649.59;;;6.60;100.00
71907;BME280;59781;52.090;5.030;2022-11-18T21:38:31;100641.84;;;6.39;100.00
71907;BME280;59781;52.090;5.030;2022-11-18T21:41:17;100652.78;;;6.46;100.00
71907;BME280;59781;52.090;5.030;2022-11-18T21:43:44;100652.88;;;6.54;100.00
71907;BME280;59781;52.090;5.030;2022-11-18T21:50:47;100659.38;;;6.24;100.00
71907;BME280;59781;52.090;5.030;2022-11-18T21:57:19;100665.34;;;5.89;100.00
71907;BME280;59781;52.090;5.030;2022-11-18T22:00:17;100673.13;;;5.82;100.00
71907;BME280;59781;52.090;5.030;2022-11-18T22:02:43;100669.03;;;5.88;100.00
71907;BME280;59781;52.090;5.030;2022-11-18T22:05:12;100674.13;;;5.91;100.00
71907;BME280;59781;52.090;5.030;2022-11-18T22:11:56;100687.53;;;6.18;100.00
71907;BME280;59781;52.090;5.030;2022-11-18T22:15:10;100691.06;;;6.09;100.00
71907;BME280;59781;52.090;5.030;2022-11-18T22:19:28;100691.53;;;5.85;100.00
71907;BME280;59781;52.090;5.030;2022-11-18T22:23:12;100694.22;;;5.95;100.00
71907;BME280;59781;52.090;5.030;2022-11-18T22:25:58;100695.41;;;5.54;100.00
71907;BME280;59781;52.090;5.030;2022-11-18T22:29:58;100699.84;;;5.82;100.00
71907;BME280;59781;52.090;5.030;2022-11-18T22:32:24;100705.06;;;5.74;100.00
71907;BME280;59781;52.090;5.030;2022-11-18T22:35:26;100712.41;;;5.43;100.00
71907;BME280;59781;52.090;5.030;2022-11-18T22:39:16;100709.59;;;5.35;100.00
71907;BME280;59781;52.090;5.030;2022-11-18T22:51:40;100734.59;;;5.14;100.00
71907;BME280;59781;52.090;5.030;2022-11-18T22:55:25;100732.88;;;4.94;100.00
71907;BME280;59781;52.090;5.030;2022-11-18T22:57:53;100739.50;;;5.09;100.00
71907;BME280;59781;52.090;5.030;2022-11-18T23:00:38;100744.97;;;4.98;100.00
71907;BME280;59781;52.090;5.030;2022-11-18T23:04:24;100744.53;;;4.83;100.00
71907;BME280;59781;52.090;5.030;2022-11-18T23:07:59;100746.88;;;4.77;100.00
71907;BME280;59781;52.090;5.030;2022-11-18T23:11:21;100753.50;;;4.82;100.00
71907;BME280;59781;52.090;5.030;2022-11-18T23:14:08;100748.16;;;4.82;100.00
71907;BME280;59781;52.090;5.030;2022-11-18T23:16:37;100747.19;;;4.83;100.00
71907;BME280;59781;52.090;5.030;2022-11-18T23:20:31;100752.66;;;4.82;100.00
71907;BME280;59781;52.090;5.030;2022-11-18T23:24:01;100761.03;;;4.68;100.00
71907;BME280;59781;52.090;5.030;2022-11-18T23:28:04;100775.78;;;4.41;100.00
71907;BME280;59781;52.090;5.030;2022-11-18T23:30:51;100769.03;;;4.68;100.00
71907;BME280;59781;52.090;5.030;2022-11-18T23:34:34;100777.91;;;4.78;100.00
71907;BME280;59781;52.090;5.030;2022-11-18T23:38:12;100772.69;;;4.67;100.00
71907;BME280;59781;52.090;5.030;2022-11-18T23:42:22;100780.03;;;4.74;100.00
71907;BME280;59781;52.090;5.030;2022-11-18T23:46:31;100779.59;;;4.79;100.00
71907;BME280;59781;52.090;5.030;2022-11-18T23:49:44;100787.19;;;4.74;100.00
71907;BME280;59781;52.090;5.030;2022-11-18T23:53:04;100784.28;;;4.56;100.00
71907;BME280;59781;52.090;5.030;2022-11-18T23:57:25;100789.81;;;4.64;100.00
